sensor_id;sensor_type;location;lat;lon;timestamp;temperature;humidity
9425;DHT22;17139;52.140;11.636;2023-07-20T00:00:07;18.10;49.40
9425;DHT22;17139;52.140;11.636;2023-07-20T00:02:34;18.50;50.90
9425;DHT22;17139;52.140;11.636;2023-07-20T00:05:01;18.10;49.20
9425;DHT22;17139;52.140;11.636;2023-07-20T00:07:28;17.80;49.20
9425;DHT22;17139;52.140;11.636;2023-07-20T00:09:55;17.60;49.00
9425;DHT22;17139;52.140;11.636;2023-07-20T00:12:24;17.50;49.00
9425;DHT22;17139;52.140;11.636;2023-07-20T00:14:51;17.40;49.20
9425;DHT22;17139;52.140;11.636;2023-07-20T00:17:19;17.30;49.20
9425;DHT22;17139;52.140;11.636;2023-07-20T00:19:47;17.30;49.30
9425;DHT22;17139;52.140;11.636;2023-07-20T00:22:13;17.60;50.90
9425;DHT22;17139;52.140;11.636;2023-07-20T00:24:40;17.40;49.30
9425;DHT22;17139;52.140;11.636;2023-07-20T00:27:07;17.20;49.20
9425;DHT22;17139;52.140;11.636;2023-07-20T00:29:36;18.00;51.20
9425;DHT22;17139;52.140;11.636;2023-07-20T00:32:03;17.60;49.40
9425;DHT22;17139;52.140;11.636;2023-07-20T00:34:31;17.30;49.50
9425;DHT22;17139;52.140;11.636;2023-07-20T00:36:58;17.00;49.40
9425;DHT22;17139;52.140;11.636;2023-07-20T00:39:25;16.90;49.50
9425;DHT22;17139;52.140;11.636;2023-07-20T00:41:52;16.80;49.50
9425;DHT22;17139;52.140;11.636;2023-07-20T00:44:19;16.70;49.50
9425;DHT22;17139;52.140;11.636;2023-07-20T00:46:48;16.60;49.50
9425;DHT22;17139;52.140;11.636;2023-07-20T00:49:15;17.30;51.40
9425;DHT22;17139;52.140;11.636;2023-07-20T00:51:47;17.00;49.60
9425;DHT22;17139;52.140;11.636;2023-07-20T00:54:15;17.10;50.90
9425;DHT22;17139;52.140;11.636;2023-07-20T00:56:42;16.90;49.60
9425;DHT22;17139;52.140;11.636;2023-07-20T00:59:10;16.70;49.60
9425;DHT22;17139;52.140;11.636;2023-07-20T01:01:37;16.50;49.50
9425;DHT22;17139;52.140;11.636;2023-07-20T01:04:05;16.40;49.50
9425;DHT22;17139;52.140;11.636;2023-07-20T01:06:38;16.40;49.60
9425;DHT22;17139;52.140;11.636;2023-07-20T01:09:13;16.40;49.70
9425;DHT22;17139;52.140;11.636;2023-07-20T01:11:49;16.40;49.70
9425;DHT22;17139;52.140;11.636;2023-07-20T01:14:20;16.50;50.30
9425;DHT22;17139;52.140;11.636;2023-07-20T01:16:48;16.50;49.40
9425;DHT22;17139;52.140;11.636;2023-07-20T01:19:19;16.50;49.50
9425;DHT22;17139;52.140;11.636;2023-07-20T01:21:52;16.40;49.50
9425;DHT22;17139;52.140;11.636;2023-07-20T01:24:44;16.30;49.50
9425;DHT22;17139;52.140;11.636;2023-07-20T01:27:42;16.30;49.60
9425;DHT22;17139;52.140;11.636;2023-07-20T01:30:34;16.30;49.60
9425;DHT22;17139;52.140;11.636;2023-07-20T01:33:08;16.10;49.60
9425;DHT22;17139;52.140;11.636;2023-07-20T01:35:36;16.00;49.50
9425;DHT22;17139;52.140;11.636;2023-07-20T01:38:05;15.90;49.60
9425;DHT22;17139;52.140;11.636;2023-07-20T01:40:35;16.40;51.70
9425;DHT22;17139;52.140;11.636;2023-07-20T01:43:02;16.30;49.80
9425;DHT22;17139;52.140;11.636;2023-07-20T01:45:29;16.10;49.70
9425;DHT22;17139;52.140;11.636;2023-07-20T01:47:56;16.90;52.00
9425;DHT22;17139;52.140;11.636;2023-07-20T01:50:25;16.50;50.10
9425;DHT22;17139;52.140;11.636;2023-07-20T01:52:52;16.10;50.10
9425;DHT22;17139;52.140;11.636;2023-07-20T01:55:19;15.90;50.20
9425;DHT22;17139;52.140;11.636;2023-07-20T01:57:46;15.80;50.40
9425;DHT22;17139;52.140;11.636;2023-07-20T02:00:14;15.70;50.50
9425;DHT22;17139;52.140;11.636;2023-07-20T02:02:41;15.70;50.50
9425;DHT22;17139;52.140;11.636;2023-07-20T02:05:09;15.60;50.40
9425;DHT22;17139;52.140;11.636;2023-07-20T02:07:37;15.80;52.10
9425;DHT22;17139;52.140;11.636;2023-07-20T02:10:06;15.80;50.60
9425;DHT22;17139;52.140;11.636;2023-07-20T02:12:33;15.60;50.40
9425;DHT22;17139;52.140;11.636;2023-07-20T02:15:00;15.50;50.50
9425;DHT22;17139;52.140;11.636;2023-07-20T02:17:28;15.40;50.60
9425;DHT22;17139;52.140;11.636;2023-07-20T02:19:57;15.30;50.50
9425;DHT22;17139;52.140;11.636;2023-07-20T02:22:24;15.30;50.60
9425;DHT22;17139;52.140;11.636;2023-07-20T02:24:52;15.30;50.50
9425;DHT22;17139;52.140;11.636;2023-07-20T02:27:19;15.20;50.60
9425;DHT22;17139;52.140;11.636;2023-07-20T02:29:46;15.20;50.50
9425;DHT22;17139;52.140;11.636;2023-07-20T02:32:13;15.20;50.40
9425;DHT22;17139;52.140;11.636;2023-07-20T02:34:40;15.80;52.60
9425;DHT22;17139;52.140;11.636;2023-07-20T02:37:07;15.70;50.60
9425;DHT22;17139;52.140;11.636;2023-07-20T02:39:34;15.80;51.90
9425;DHT22;17139;52.140;11.636;2023-07-20T02:42:05;15.70;50.50
9425;DHT22;17139;52.140;11.636;2023-07-20T02:44:32;15.60;50.60
9425;DHT22;17139;52.140;11.636;2023-07-20T02:46:59;15.50;50.60
9425;DHT22;17139;52.140;11.636;2023-07-20T02:49:26;15.50;50.60
9425;DHT22;17139;52.140;11.636;2023-07-20T02:51:53;15.50;50.60
9425;DHT22;17139;52.140;11.636;2023-07-20T02:54:21;15.40;50.50
9425;DHT22;17139;52.140;11.636;2023-07-20T02:56:48;15.40;50.50
9425;DHT22;17139;52.140;11.636;2023-07-20T02:59:17;15.40;50.30
9425;DHT22;17139;52.140;11.636;2023-07-20T03:01:44;15.50;50.50
9425;DHT22;17139;52.140;11.636;2023-07-20T03:04:11;15.40;50.40
9425;DHT22;17139;52.140;11.636;2023-07-20T03:06:38;16.10;52.50
9425;DHT22;17139;52.140;11.636;2023-07-20T03:09:05;15.90;50.60
9425;DHT22;17139;52.140;11.636;2023-07-20T03:11:32;15.80;50.60
9425;DHT22;17139;52.140;11.636;2023-07-20T03:13:59;15.60;50.60
9425;DHT22;17139;52.140;11.636;2023-07-20T03:16:28;15.60;50.70
9425;DHT22;17139;52.140;11.636;2023-07-20T03:18:58;15.50;50.60
9425;DHT22;17139;52.140;11.636;2023-07-20T03:21:26;15.40;50.60
9425;DHT22;17139;52.140;11.636;2023-07-20T03:23:53;15.40;50.70
9425;DHT22;17139;52.140;11.636;2023-07-20T03:26:20;15.90;52.50
9425;DHT22;17139;52.140;11.636;2023-07-20T03:28:47;15.80;51.50
9425;DHT22;17139;52.140;11.636;2023-07-20T03:31:14;15.90;51.50
9425;DHT22;17139;52.140;11.636;2023-07-20T03:33:43;15.80;50.80
9425;DHT22;17139;52.140;11.636;2023-07-20T03:36:10;15.80;50.80
9425;DHT22;17139;52.140;11.636;2023-07-20T03:38:37;15.80;50.70
9425;DHT22;17139;52.140;11.636;2023-07-20T03:41:04;15.70;50.60
9425;DHT22;17139;52.140;11.636;2023-07-20T03:43:31;15.70;50.70
9425;DHT22;17139;52.140;11.636;2023-07-20T03:45:58;15.70;50.70
9425;DHT22;17139;52.140;11.636;2023-07-20T03:48:25;15.60;50.60
9425;DHT22;17139;52.140;11.636;2023-07-20T03:50:54;15.60;50.50
9425;DHT22;17139;52.140;11.636;2023-07-20T03:53:21;16.40;52.60
9425;DHT22;17139;52.140;11.636;2023-07-20T03:55:49;16.10;50.80
9425;DHT22;17139;52.140;11.636;2023-07-20T03:58:16;16.30;52.40
9425;DHT22;17139;52.140;11.636;2023-07-20T04:00:45;16.10;51.20
9425;DHT22;17139;52.140;11.636;2023-07-20T04:03:12;15.90;51.20
9425;DHT22;17139;52.140;11.636;2023-07-20T04:05:39;15.80;51.20
9425;DHT22;17139;52.140;11.636;2023-07-20T04:08:07;15.70;51.20
9425;DHT22;17139;52.140;11.636;2023-07-20T04:10:35;15.60;51.10
9425;DHT22;17139;52.140;11.636;2023-07-20T04:13:02;15.60;51.10
9425;DHT22;17139;52.140;11.636;2023-07-20T04:15:29;15.50;51.10
9425;DHT22;17139;52.140;11.636;2023-07-20T04:17:56;15.50;51.10
9425;DHT22;17139;52.140;11.636;2023-07-20T04:20:23;15.50;51.10
9425;DHT22;17139;52.140;11.636;2023-07-20T04:22:50;15.50;51.00
9425;DHT22;17139;52.140;11.636;2023-07-20T04:25:19;16.10;52.70
9425;DHT22;17139;52.140;11.636;2023-07-20T04:27:46;16.00;51.20
9425;DHT22;17139;52.140;11.636;2023-07-20T04:30:13;15.80;51.00
9425;DHT22;17139;52.140;11.636;2023-07-20T04:32:41;15.70;51.20
9425;DHT22;17139;52.140;11.636;2023-07-20T04:35:09;15.70;51.30
9425;DHT22;17139;52.140;11.636;2023-07-20T04:37:36;15.80;51.50
9425;DHT22;17139;52.140;11.636;2023-07-20T04:40:04;15.80;51.30
9425;DHT22;17139;52.140;11.636;2023-07-20T04:42:34;15.90;51.20
9425;DHT22;17139;52.140;11.636;2023-07-20T04:45:01;16.10;52.70
9425;DHT22;17139;52.140;11.636;2023-07-20T04:47:29;16.20;51.10
9425;DHT22;17139;52.140;11.636;2023-07-20T04:49:56;16.20;51.10
9425;DHT22;17139;52.140;11.636;2023-07-20T04:52:23;17.20;52.50
9425;DHT22;17139;52.140;11.636;2023-07-20T04:54:50;16.90;51.00
9425;DHT22;17139;52.140;11.636;2023-07-20T04:57:17;16.70;51.10
9425;DHT22;17139;52.140;11.636;2023-07-20T04:59:45;16.60;51.00
9425;DHT22;17139;52.140;11.636;2023-07-20T05:02:12;16.50;51.00
9425;DHT22;17139;52.140;11.636;2023-07-20T05:04:39;16.40;50.90
9425;DHT22;17139;52.140;11.636;2023-07-20T05:07:06;16.40;51.50
9425;DHT22;17139;52.140;11.636;2023-07-20T05:09:33;16.50;51.50
9425;DHT22;17139;52.140;11.636;2023-07-20T05:12:00;17.20;52.10
9425;DHT22;17139;52.140;11.636;2023-07-20T05:14:27;17.20;50.90
9425;DHT22;17139;52.140;11.636;2023-07-20T05:16:56;17.10;50.90
9425;DHT22;17139;52.140;11.636;2023-07-20T05:19:24;17.40;51.30
9425;DHT22;17139;52.140;11.636;2023-07-20T05:21:51;18.40;51.30
9425;DHT22;17139;52.140;11.636;2023-07-20T05:24:18;18.50;51.00
9425;DHT22;17139;52.140;11.636;2023-07-20T05:26:45;19.30;50.10
9425;DHT22;17139;52.140;11.636;2023-07-20T05:29:12;19.10;49.70
9425;DHT22;17139;52.140;11.636;2023-07-20T05:31:39;19.00;49.90
9425;DHT22;17139;52.140;11.636;2023-07-20T05:34:08;19.10;49.80
9425;DHT22;17139;52.140;11.636;2023-07-20T05:36:35;18.90;49.60
9425;DHT22;17139;52.140;11.636;2023-07-20T05:39:02;18.70;50.00
9425;DHT22;17139;52.140;11.636;2023-07-20T05:41:29;18.50;49.90
9425;DHT22;17139;52.140;11.636;2023-07-20T05:43:56;18.60;50.30
9425;DHT22;17139;52.140;11.636;2023-07-20T05:46:23;18.60;50.00
9425;DHT22;17139;52.140;11.636;2023-07-20T05:48:51;18.70;50.00
9425;DHT22;17139;52.140;11.636;2023-07-20T05:51:19;18.90;50.20
9425;DHT22;17139;52.140;11.636;2023-07-20T05:53:46;19.10;50.30
9425;DHT22;17139;52.140;11.636;2023-07-20T05:56:14;19.10;49.80
9425;DHT22;17139;52.140;11.636;2023-07-20T05:58:41;19.40;49.60
9425;DHT22;17139;52.140;11.636;2023-07-20T06:01:08;19.30;49.20
9425;DHT22;17139;52.140;11.636;2023-07-20T06:03:34;19.10;49.20
9425;DHT22;17139;52.140;11.636;2023-07-20T06:06:03;19.70;48.60
9425;DHT22;17139;52.140;11.636;2023-07-20T06:08:32;19.20;48.60
9425;DHT22;17139;52.140;11.636;2023-07-20T06:10:59;18.90;49.20
9425;DHT22;17139;52.140;11.636;2023-07-20T06:13:26;18.80;49.60
9425;DHT22;17139;52.140;11.636;2023-07-20T06:15:53;18.70;49.80
9425;DHT22;17139;52.140;11.636;2023-07-20T06:18:21;18.90;49.80
9425;DHT22;17139;52.140;11.636;2023-07-20T06:20:49;18.90;49.50
9425;DHT22;17139;52.140;11.636;2023-07-20T06:23:18;18.80;49.50
9425;DHT22;17139;52.140;11.636;2023-07-20T06:25:47;19.50;49.00
9425;DHT22;17139;52.140;11.636;2023-07-20T06:28:14;19.20;48.80
9425;DHT22;17139;52.140;11.636;2023-07-20T06:30:41;19.60;48.60
9425;DHT22;17139;52.140;11.636;2023-07-20T06:33:08;19.30;48.60
9425;DHT22;17139;52.140;11.636;2023-07-20T06:35:35;19.10;49.00
9425;DHT22;17139;52.140;11.636;2023-07-20T06:38:02;19.10;49.20
9425;DHT22;17139;52.140;11.636;2023-07-20T06:40:29;19.20;49.20
9425;DHT22;17139;52.140;11.636;2023-07-20T06:42:58;19.40;49.30
9425;DHT22;17139;52.140;11.636;2023-07-20T06:45:25;19.80;49.10
9425;DHT22;17139;52.140;11.636;2023-07-20T06:47:52;20.10;48.70
9425;DHT22;17139;52.140;11.636;2023-07-20T06:50:19;20.90;47.50
9425;DHT22;17139;52.140;11.636;2023-07-20T06:52:46;21.00;47.30
9425;DHT22;17139;52.140;11.636;2023-07-20T06:55:13;21.00;47.30
9425;DHT22;17139;52.140;11.636;2023-07-20T06:57:41;21.80;45.60
9425;DHT22;17139;52.140;11.636;2023-07-20T07:00:10;21.50;46.30
9425;DHT22;17139;52.140;11.636;2023-07-20T07:02:38;21.30;46.70
9425;DHT22;17139;52.140;11.636;2023-07-20T07:05:05;21.00;47.10
9425;DHT22;17139;52.140;11.636;2023-07-20T07:07:32;20.90;47.30
9425;DHT22;17139;52.140;11.636;2023-07-20T07:10:00;20.80;47.20
9425;DHT22;17139;52.140;11.636;2023-07-20T07:12:29;20.80;47.30
9425;DHT22;17139;52.140;11.636;2023-07-20T07:14:56;20.60;47.40
9425;DHT22;17139;52.140;11.636;2023-07-20T07:17:25;20.80;47.00
9425;DHT22;17139;52.140;11.636;2023-07-20T07:19:52;20.60;47.00
9425;DHT22;17139;52.140;11.636;2023-07-20T07:22:20;20.30;47.40
9425;DHT22;17139;52.140;11.636;2023-07-20T07:24:48;21.10;46.50
9425;DHT22;17139;52.140;11.636;2023-07-20T07:27:15;20.60;46.80
9425;DHT22;17139;52.140;11.636;2023-07-20T07:29:42;20.30;47.20
9425;DHT22;17139;52.140;11.636;2023-07-20T07:32:10;20.00;47.50
9425;DHT22;17139;52.140;11.636;2023-07-20T07:34:39;19.90;47.80
9425;DHT22;17139;52.140;11.636;2023-07-20T07:37:06;19.90;47.80
9425;DHT22;17139;52.140;11.636;2023-07-20T07:39:33;19.70;47.90
9425;DHT22;17139;52.140;11.636;2023-07-20T07:42:00;19.70;48.10
9425;DHT22;17139;52.140;11.636;2023-07-20T07:44:27;20.10;48.10
9425;DHT22;17139;52.140;11.636;2023-07-20T07:46:54;20.00;47.90
9425;DHT22;17139;52.140;11.636;2023-07-20T07:49:21;19.90;48.00
9425;DHT22;17139;52.140;11.636;2023-07-20T07:51:50;20.70;47.30
9425;DHT22;17139;52.140;11.636;2023-07-20T07:54:17;20.40;47.40
9425;DHT22;17139;52.140;11.636;2023-07-20T07:56:44;20.10;47.80
9425;DHT22;17139;52.140;11.636;2023-07-20T07:59:11;19.90;48.00
9425;DHT22;17139;52.140;11.636;2023-07-20T08:01:38;19.90;48.20
9425;DHT22;17139;52.140;11.636;2023-07-20T08:04:05;19.90;48.10
9425;DHT22;17139;52.140;11.636;2023-07-20T08:06:32;19.70;48.10
9425;DHT22;17139;52.140;11.636;2023-07-20T08:09:01;19.60;48.10
9425;DHT22;17139;52.140;11.636;2023-07-20T08:11:34;19.90;48.00
9425;DHT22;17139;52.140;11.636;2023-07-20T08:14:01;19.80;47.90
9425;DHT22;17139;52.140;11.636;2023-07-20T08:16:28;19.60;47.90
9425;DHT22;17139;52.140;11.636;2023-07-20T08:18:55;20.30;46.80
9425;DHT22;17139;52.140;11.636;2023-07-20T08:21:22;20.00;47.10
9425;DHT22;17139;52.140;11.636;2023-07-20T08:23:49;19.80;47.60
9425;DHT22;17139;52.140;11.636;2023-07-20T08:26:17;19.60;47.70
9425;DHT22;17139;52.140;11.636;2023-07-20T08:28:48;19.50;48.20
9425;DHT22;17139;52.140;11.636;2023-07-20T08:31:15;19.40;48.30
9425;DHT22;17139;52.140;11.636;2023-07-20T08:33:42;19.40;48.30
9425;DHT22;17139;52.140;11.636;2023-07-20T08:36:09;19.30;48.30
9425;DHT22;17139;52.140;11.636;2023-07-20T08:38:36;19.30;48.30
9425;DHT22;17139;52.140;11.636;2023-07-20T08:41:03;19.20;48.20
9425;DHT22;17139;52.140;11.636;2023-07-20T08:43:33;19.00;48.30
9425;DHT22;17139;52.140;11.636;2023-07-20T08:46:00;19.60;47.90
9425;DHT22;17139;52.140;11.636;2023-07-20T08:48:28;19.30;47.90
9425;DHT22;17139;52.140;11.636;2023-07-20T08:50:58;19.00;48.20
9425;DHT22;17139;52.140;11.636;2023-07-20T08:53:27;18.70;48.50
9425;DHT22;17139;52.140;11.636;2023-07-20T08:55:55;18.70;48.80
9425;DHT22;17139;52.140;11.636;2023-07-20T08:58:23;18.60;48.80
9425;DHT22;17139;52.140;11.636;2023-07-20T09:00:54;18.70;48.90
9425;DHT22;17139;52.140;11.636;2023-07-20T09:03:21;18.70;48.90
9425;DHT22;17139;52.140;11.636;2023-07-20T09:05:48;18.80;49.00
9425;DHT22;17139;52.140;11.636;2023-07-20T09:08:16;18.90;48.90
9425;DHT22;17139;52.140;11.636;2023-07-20T09:10:43;19.10;48.90
9425;DHT22;17139;52.140;11.636;2023-07-20T09:13:14;19.90;48.70
9425;DHT22;17139;52.140;11.636;2023-07-20T09:15:46;19.80;47.90
9425;DHT22;17139;52.140;11.636;2023-07-20T09:18:23;19.80;48.60
9425;DHT22;17139;52.140;11.636;2023-07-20T09:20:51;19.90;48.00
9425;DHT22;17139;52.140;11.636;2023-07-20T09:23:18;20.00;48.00
9425;DHT22;17139;52.140;11.636;2023-07-20T09:25:47;20.20;47.90
9425;DHT22;17139;52.140;11.636;2023-07-20T09:28:16;20.40;47.80
9425;DHT22;17139;52.140;11.636;2023-07-20T09:30:43;20.50;47.80
9425;DHT22;17139;52.140;11.636;2023-07-20T09:33:21;20.60;47.60
9425;DHT22;17139;52.140;11.636;2023-07-20T09:35:48;20.70;47.50
9425;DHT22;17139;52.140;11.636;2023-07-20T09:38:16;20.60;47.50
9425;DHT22;17139;52.140;11.636;2023-07-20T09:40:43;21.40;46.70
9425;DHT22;17139;52.140;11.636;2023-07-20T09:43:10;21.10;47.00
9425;DHT22;17139;52.140;11.636;2023-07-20T09:45:40;21.20;47.20
9425;DHT22;17139;52.140;11.636;2023-07-20T09:48:08;21.10;47.00
9425;DHT22;17139;52.140;11.636;2023-07-20T09:50:41;21.10;47.30
9425;DHT22;17139;52.140;11.636;2023-07-20T09:53:11;21.20;47.30
9425;DHT22;17139;52.140;11.636;2023-07-20T09:55:40;21.30;47.20
9425;DHT22;17139;52.140;11.636;2023-07-20T09:58:08;21.40;46.90
9425;DHT22;17139;52.140;11.636;2023-07-20T10:00:37;21.60;46.10
9425;DHT22;17139;52.140;11.636;2023-07-20T10:03:04;21.40;46.40
9425;DHT22;17139;52.140;11.636;2023-07-20T10:05:34;21.30;46.70
9425;DHT22;17139;52.140;11.636;2023-07-20T10:08:04;22.20;44.10
9425;DHT22;17139;52.140;11.636;2023-07-20T10:10:33;22.00;44.90
9425;DHT22;17139;52.140;11.636;2023-07-20T10:13:01;22.00;45.30
9425;DHT22;17139;52.140;11.636;2023-07-20T10:15:33;21.90;45.40
9425;DHT22;17139;52.140;11.636;2023-07-20T10:18:06;21.90;45.60
9425;DHT22;17139;52.140;11.636;2023-07-20T10:20:36;21.80;45.60
9425;DHT22;17139;52.140;11.636;2023-07-20T10:23:07;21.60;45.80
9425;DHT22;17139;52.140;11.636;2023-07-20T10:25:35;21.50;46.00
9425;DHT22;17139;52.140;11.636;2023-07-20T10:28:04;21.80;44.90
9425;DHT22;17139;52.140;11.636;2023-07-20T10:30:33;21.40;45.50
9425;DHT22;17139;52.140;11.636;2023-07-20T10:33:01;21.30;45.50
9425;DHT22;17139;52.140;11.636;2023-07-20T10:35:29;21.00;45.70
9425;DHT22;17139;52.140;11.636;2023-07-20T10:38:01;20.80;45.70
9425;DHT22;17139;52.140;11.636;2023-07-20T10:40:33;20.70;45.50
9425;DHT22;17139;52.140;11.636;2023-07-20T10:43:03;20.80;45.70
9425;DHT22;17139;52.140;11.636;2023-07-20T10:45:41;20.90;45.70
9425;DHT22;17139;52.140;11.636;2023-07-20T10:48:18;21.10;45.40
9425;DHT22;17139;52.140;11.636;2023-07-20T10:50:45;21.20;45.10
9425;DHT22;17139;52.140;11.636;2023-07-20T10:53:14;21.30;45.20
9425;DHT22;17139;52.140;11.636;2023-07-20T10:55:43;22.00;42.30
9425;DHT22;17139;52.140;11.636;2023-07-20T10:58:13;21.50;43.70
9425;DHT22;17139;52.140;11.636;2023-07-20T11:01:01;21.50;42.80
9425;DHT22;17139;52.140;11.636;2023-07-20T11:03:29;21.20;43.90
9425;DHT22;17139;52.140;11.636;2023-07-20T11:05:57;20.90;44.50
9425;DHT22;17139;52.140;11.636;2023-07-20T11:08:38;20.90;44.90
9425;DHT22;17139;52.140;11.636;2023-07-20T11:11:24;21.00;44.70
9425;DHT22;17139;52.140;11.636;2023-07-20T11:13:56;21.20;44.80
9425;DHT22;17139;52.140;11.636;2023-07-20T11:16:34;21.00;44.50
9425;DHT22;17139;52.140;11.636;2023-07-20T11:19:02;20.90;44.50
9425;DHT22;17139;52.140;11.636;2023-07-20T11:21:29;20.90;44.80
9425;DHT22;17139;52.140;11.636;2023-07-20T11:23:57;20.90;44.60
9425;DHT22;17139;52.140;11.636;2023-07-20T11:26:26;20.80;44.60
9425;DHT22;17139;52.140;11.636;2023-07-20T11:28:53;21.00;43.40
9425;DHT22;17139;52.140;11.636;2023-07-20T11:31:20;20.90;43.90
9425;DHT22;17139;52.140;11.636;2023-07-20T11:33:47;20.70;44.30
9425;DHT22;17139;52.140;11.636;2023-07-20T11:36:14;20.40;44.40
9425;DHT22;17139;52.140;11.636;2023-07-20T11:38:41;20.30;44.70
9425;DHT22;17139;52.140;11.636;2023-07-20T11:41:09;20.30;44.80
9425;DHT22;17139;52.140;11.636;2023-07-20T11:43:38;20.20;44.70
9425;DHT22;17139;52.140;11.636;2023-07-20T11:46:05;20.20;44.70
9425;DHT22;17139;52.140;11.636;2023-07-20T11:48:33;20.20;44.90
9425;DHT22;17139;52.140;11.636;2023-07-20T11:51:00;20.40;43.70
9425;DHT22;17139;52.140;11.636;2023-07-20T11:53:27;20.40;44.00
9425;DHT22;17139;52.140;11.636;2023-07-20T11:55:54;20.40;44.00
9425;DHT22;17139;52.140;11.636;2023-07-20T11:58:21;21.20;40.50
9425;DHT22;17139;52.140;11.636;2023-07-20T12:00:49;21.10;42.10
9425;DHT22;17139;52.140;11.636;2023-07-20T12:03:18;21.20;42.60
9425;DHT22;17139;52.140;11.636;2023-07-20T12:05:45;21.30;42.80
9425;DHT22;17139;52.140;11.636;2023-07-20T12:08:12;21.40;42.80
9425;DHT22;17139;52.140;11.636;2023-07-20T12:10:40;21.50;42.40
9425;DHT22;17139;52.140;11.636;2023-07-20T12:13:10;21.60;42.30
9425;DHT22;17139;52.140;11.636;2023-07-20T12:15:37;21.60;42.30
9425;DHT22;17139;52.140;11.636;2023-07-20T12:18:06;21.70;40.90
9425;DHT22;17139;52.140;11.636;2023-07-20T12:20:34;22.40;38.30
9425;DHT22;17139;52.140;11.636;2023-07-20T12:23:03;22.10;40.30
9425;DHT22;17139;52.140;11.636;2023-07-20T12:25:37;22.20;39.50
9425;DHT22;17139;52.140;11.636;2023-07-20T12:28:06;21.90;40.70
9425;DHT22;17139;52.140;11.636;2023-07-20T12:30:33;21.70;41.20
9425;DHT22;17139;52.140;11.636;2023-07-20T12:33:00;21.60;41.80
9425;DHT22;17139;52.140;11.636;2023-07-20T12:35:29;21.60;41.90
9425;DHT22;17139;52.140;11.636;2023-07-20T12:37:57;21.60;41.90
9425;DHT22;17139;52.140;11.636;2023-07-20T12:40:24;21.60;42.00
9425;DHT22;17139;52.140;11.636;2023-07-20T12:42:51;21.70;41.90
9425;DHT22;17139;52.140;11.636;2023-07-20T12:45:18;21.80;41.90
9425;DHT22;17139;52.140;11.636;2023-07-20T12:47:45;21.90;42.00
9425;DHT22;17139;52.140;11.636;2023-07-20T12:50:13;22.00;42.00
9425;DHT22;17139;52.140;11.636;2023-07-20T12:52:42;22.40;39.50
9425;DHT22;17139;52.140;11.636;2023-07-20T12:55:10;22.40;40.70
9425;DHT22;17139;52.140;11.636;2023-07-20T12:57:37;22.40;40.90
9425;DHT22;17139;52.140;11.636;2023-07-20T13:00:06;22.40;41.10
9425;DHT22;17139;52.140;11.636;2023-07-20T13:02:34;22.40;41.30
9425;DHT22;17139;52.140;11.636;2023-07-20T13:05:02;22.40;41.30
9425;DHT22;17139;52.140;11.636;2023-07-20T13:07:30;22.40;41.40
9425;DHT22;17139;52.140;11.636;2023-07-20T13:09:59;22.30;41.30
9425;DHT22;17139;52.140;11.636;2023-07-20T13:12:27;22.50;41.80
9425;DHT22;17139;52.140;11.636;2023-07-20T13:14:55;23.30;37.60
9425;DHT22;17139;52.140;11.636;2023-07-20T13:17:22;23.10;39.30
9425;DHT22;17139;52.140;11.636;2023-07-20T13:19:49;23.10;40.00
9425;DHT22;17139;52.140;11.636;2023-07-20T13:22:16;23.10;40.50
9425;DHT22;17139;52.140;11.636;2023-07-20T13:24:45;23.10;40.60
9425;DHT22;17139;52.140;11.636;2023-07-20T13:27:16;23.10;40.40
9425;DHT22;17139;52.140;11.636;2023-07-20T13:29:44;23.00;40.60
9425;DHT22;17139;52.140;11.636;2023-07-20T13:32:13;22.70;40.70
9425;DHT22;17139;52.140;11.636;2023-07-20T13:34:41;22.70;41.10
9425;DHT22;17139;52.140;11.636;2023-07-20T13:37:08;22.60;41.30
9425;DHT22;17139;52.140;11.636;2023-07-20T13:39:36;22.60;40.40
9425;DHT22;17139;52.140;11.636;2023-07-20T13:42:03;22.60;40.70
9425;DHT22;17139;52.140;11.636;2023-07-20T13:44:32;22.60;40.80
9425;DHT22;17139;52.140;11.636;2023-07-20T13:46:59;23.30;37.20
9425;DHT22;17139;52.140;11.636;2023-07-20T13:49:27;23.00;39.20
9425;DHT22;17139;52.140;11.636;2023-07-20T13:51:55;22.70;39.60
9425;DHT22;17139;52.140;11.636;2023-07-20T13:54:22;22.60;40.00
9425;DHT22;17139;52.140;11.636;2023-07-20T13:56:49;22.60;40.30
9425;DHT22;17139;52.140;11.636;2023-07-20T13:59:17;22.50;40.40
9425;DHT22;17139;52.140;11.636;2023-07-20T14:01:46;22.40;40.30
9425;DHT22;17139;52.140;11.636;2023-07-20T14:04:13;22.40;40.40
9425;DHT22;17139;52.140;11.636;2023-07-20T14:06:40;22.60;38.90
9425;DHT22;17139;52.140;11.636;2023-07-20T14:09:07;22.50;40.00
9425;DHT22;17139;52.140;11.636;2023-07-20T14:11:34;22.50;40.90
9425;DHT22;17139;52.140;11.636;2023-07-20T14:14:01;22.50;40.30
9425;DHT22;17139;52.140;11.636;2023-07-20T14:16:29;22.60;40.40
9425;DHT22;17139;52.140;11.636;2023-07-20T14:18:59;22.60;40.50
9425;DHT22;17139;52.140;11.636;2023-07-20T14:21:26;22.60;40.60
9425;DHT22;17139;52.140;11.636;2023-07-20T14:23:54;22.50;40.50
9425;DHT22;17139;52.140;11.636;2023-07-20T14:26:21;22.40;40.70
9425;DHT22;17139;52.140;11.636;2023-07-20T14:28:48;22.40;40.80
9425;DHT22;17139;52.140;11.636;2023-07-20T14:31:15;22.40;40.70
9425;DHT22;17139;52.140;11.636;2023-07-20T14:33:42;22.60;39.00
9425;DHT22;17139;52.140;11.636;2023-07-20T14:36:10;22.50;40.10
9425;DHT22;17139;52.140;11.636;2023-07-20T14:38:37;22.30;40.40
9425;DHT22;17139;52.140;11.636;2023-07-20T14:41:06;23.00;38.20
9425;DHT22;17139;52.140;11.636;2023-07-20T14:43:33;22.70;39.40
9425;DHT22;17139;52.140;11.636;2023-07-20T14:46:00;22.60;39.80
9425;DHT22;17139;52.140;11.636;2023-07-20T14:48:27;22.50;40.20
9425;DHT22;17139;52.140;11.636;2023-07-20T14:50:54;22.50;40.10
9425;DHT22;17139;52.140;11.636;2023-07-20T14:53:22;22.40;40.30
9425;DHT22;17139;52.140;11.636;2023-07-20T14:55:49;22.90;38.00
9425;DHT22;17139;52.140;11.636;2023-07-20T14:58:16;23.00;37.30
9425;DHT22;17139;52.140;11.636;2023-07-20T15:00:43;23.40;35.40
9425;DHT22;17139;52.140;11.636;2023-07-20T15:03:11;23.10;37.10
9425;DHT22;17139;52.140;11.636;2023-07-20T15:05:37;23.20;36.30
9425;DHT22;17139;52.140;11.636;2023-07-20T15:08:05;22.90;37.80
9425;DHT22;17139;52.140;11.636;2023-07-20T15:10:35;22.80;38.40
9425;DHT22;17139;52.140;11.636;2023-07-20T15:13:02;22.60;38.70
9425;DHT22;17139;52.140;11.636;2023-07-20T15:15:29;22.60;39.00
9425;DHT22;17139;52.140;11.636;2023-07-20T15:17:56;22.50;39.20
9425;DHT22;17139;52.140;11.636;2023-07-20T15:20:23;22.70;38.10
9425;DHT22;17139;52.140;11.636;2023-07-20T15:22:50;22.60;38.60
9425;DHT22;17139;52.140;11.636;2023-07-20T15:25:17;22.50;38.70
9425;DHT22;17139;52.140;11.636;2023-07-20T15:27:45;23.10;35.80
9425;DHT22;17139;52.140;11.636;2023-07-20T15:30:12;23.00;37.70
9425;DHT22;17139;52.140;11.636;2023-07-20T15:32:40;22.80;39.00
9425;DHT22;17139;52.140;11.636;2023-07-20T15:35:09;22.80;38.60